Latest Weather Observations for Gabo Island

IDV60801

Issued at 9:32 am EDT Sunday 19 November 2017 (issued every 30 minutes, with the page automatically refreshed every 10 minutes)

About weather observations | Map of weather stations | Latest weather observations for VIC | Other Formats
Station Details ID: 084016 Name: GABO ISLAND LIGHTHOUSE Lat: -37.57 Lon: 149.92 Height: 15.2 m
Data from the previous 72 hours. | See also: Recent months at Gabo Island
Date/Time
EDT
Temp
°C
App
Temp
°C
Dew
Point
°C
Rel
Hum
%
Delta-T
°C
Wind Press
QNH
hPa
Press
MSL
hPa
Rain since
9am
mm
Dir  Spd
km/h
Gust
km/h
Spd
kts
Gust
kts
19/09:30am 17.6 14.4 15.2 86 1.4 ENE 26 28 14 15 1024.0 - 0.0
19/09:00am 18.0 15.4 15.8 87 1.3 NE 24 28 13 15 1023.9 1023.9 0.0
19/08:30am 17.4 14.6 15.3 87 1.2 NNE 24 30 13 16 1024.0 - 0.0
19/08:00am 17.5 17.3 15.8 90 1.0 NNE 11 15 6 8 1023.8 - 0.0
19/07:30am 16.9 16.4 15.9 94 0.6 N 13 17 7 9 1023.6 - 0.0
19/07:00am 16.1 15.8 15.4 96 0.4 N 11 15 6 8 1023.4 - 0.0
19/06:30am 15.1 13.7 14.4 96 0.4 NNE 15 15 8 8 1023.1 - 0.0
19/06:00am 14.5 13.5 14.5 100 0.0 NNE 13 17 7 9 1022.9 1022.9 0.0
19/05:30am 14.6 13.2 14.6 100 0.0 NNE 15 17 8 9 1022.6 - 0.0
19/05:00am 14.6 14.0 13.5 93 0.6 NNE 9 13 5 7 1022.5 - 0.0
19/04:30am 15.2 14.9 14.5 96 0.4 NNE 9 13 5 7 1022.4 - 0.0
19/04:00am 15.4 15.1 14.5 94 0.5 N 9 13 5 7 1022.3 - 0.0
19/03:30am 16.6 15.3 15.9 96 0.4 N 17 20 9 11 1022.3 - 0.0
19/03:00am 16.6 14.1 15.2 91 0.8 NNE 22 30 12 16 1022.2 1022.2 0.0
19/02:30am 16.2 12.9 15.0 93 0.7 ENE 26 30 14 16 1022.1 - 0.0
19/02:00am 16.1 12.8 15.1 94 0.6 NE 26 28 14 15 1022.3 - 0.0
19/01:30am 15.7 12.7 14.8 94 0.5 NE 24 26 13 14 1022.4 - 0.0
19/01:00am 15.9 12.6 14.9 94 0.6 NE 26 30 14 16 1022.2 - 0.0
19/12:30am 15.7 14.0 14.6 93 0.6 NNE 17 20 9 11 1022.7 - 0.0
19/12:00am 16.2 14.2 15.0 93 0.7 NNE 19 20 10 11 1022.8 1022.8 0.0
 
Date/Time
EDT
Temp
°C
App
Temp
°C
Dew
Point
°C
Rel
Hum
%
Delta-T
°C
Wind Press
QNH
hPa
Press
MSL
hPa
Rain since
9am
mm
Dir  Spd
km/h
Gust
km/h
Spd
kts
Gust
kts
18/11:30pm 16.5 13.5 14.9 90 0.9 NE 24 33 13 18 1022.7 - 0.0
18/11:00pm 15.9 14.1 14.5 91 0.8 NNE 17 19 9 10 1022.8 - 0.0
18/10:30pm 16.1 14.0 14.7 91 0.8 NNE 19 22 10 12 1022.8 - 0.0
18/10:00pm 16.1 14.3 14.5 90 0.9 NNE 17 20 9 11 1022.9 - 0.0
18/09:30pm 16.1 13.9 14.3 89 1.0 NNE 19 20 10 11 1022.5 - 0.0
18/09:00pm 16.1 14.2 14.3 89 1.0 NNE 17 20 9 11 1022.0 1022.0 0.0
18/08:30pm 16.4 14.2 14.5 88 1.1 NNE 19 22 10 12 1021.9 - 0.0
18/08:00pm 16.2 13.6 14.8 91 0.8 NNE 22 26 12 14 1021.7 - 0.0
18/07:30pm 16.6 12.5 14.9 90 1.0 NE 30 33 16 18 1021.2 - 0.0
18/07:00pm 17.1 13.8 15.0 87 1.2 NNE 26 32 14 17 1021.1 - 0.0
18/06:30pm 17.4 12.1 15.2 87 1.3 NE 37 43 20 23 1020.7 - 0.0
18/06:00pm 17.5 12.5 15.1 86 1.4 NE 35 41 19 22 1020.4 1020.5 0.0
18/05:30pm 17.7 12.4 15.3 86 1.4 NE 37 41 20 22 1020.4 - 0.0
18/05:00pm 18.0 13.5 15.3 84 1.6 NE 33 37 18 20 1020.5 - 0.0
18/04:30pm 17.6 12.3 15.2 86 1.4 NE 37 41 20 22 1020.6 - 0.0
18/04:00pm 17.9 12.6 15.3 85 1.5 NE 37 41 20 22 1020.7 - 0.0
18/03:30pm 18.4 12.7 15.3 82 1.8 NE 39 43 21 23 1020.8 - 0.0
18/03:00pm 18.0 11.9 15.3 84 1.6 NE 41 44 22 24 1020.7 1020.8 0.0
18/02:30pm 18.7 12.8 15.6 82 1.8 NE 41 46 22 25 1021.0 - 0.0
18/02:00pm 18.5 11.9 15.4 82 1.8 NE 44 48 24 26 1020.9 - 0.0
18/01:30pm 18.6 12.6 15.5 82 1.8 NE 41 44 22 24 1021.0 - 0.0
18/01:00pm 18.2 12.5 15.3 83 1.7 NE 39 43 21 23 1021.2 - 0.0
18/12:30pm 18.1 12.0 15.2 83 1.7 NE 41 44 22 24 1021.4 - 0.0
18/12:00pm 18.0 11.9 15.3 84 1.6 NE 41 46 22 25 1021.4 1021.4 0.0
18/11:30am 18.1 12.8 15.2 83 1.7 NE 37 41 20 22 1021.7 - 0.0
18/11:00am 18.0 11.9 15.3 84 1.6 NE 41 44 22 24 1021.7 - 0.0
18/10:30am 17.5 12.6 15.3 87 1.3 NE 35 39 19 21 1021.8 - 0.0
18/10:00am 17.8 12.5 15.4 86 1.4 NE 37 41 20 22 1021.6 - 0.0
18/09:30am 17.2 12.3 15.3 88 1.1 NE 35 39 19 21 1021.7 - 0.0
18/09:00am 17.0 12.5 15.3 90 1.0 NE 33 35 18 19 1021.6 1021.6 47.6
18/08:30am 17.2 12.6 15.1 87 1.2 NE 33 35 18 19 1021.6 - 47.6
18/08:00am 16.8 12.4 15.1 90 1.0 NE 32 33 17 18 1021.3 - 47.6
18/07:30am 16.9 13.0 15.4 91 0.9 NE 30 33 16 18 1020.9 - 47.6
18/07:00am 16.2 12.2 15.2 94 0.6 NE 30 32 16 17 1020.5 - 47.6
18/06:30am 16.2 12.8 14.8 91 0.8 NE 26 30 14 16 1020.3 - 47.6
18/06:00am 15.8 12.8 14.8 94 0.6 NE 24 28 13 15 1019.8 1019.8 47.6
18/05:30am 15.8 13.1 14.6 93 0.7 NE 22 26 12 14 1019.6 - 47.6
18/05:00am 15.9 12.2 14.9 94 0.6 NE 28 32 15 17 1019.0 - 47.6
18/04:30am 15.9 12.6 14.9 94 0.6 NE 26 28 14 15 1019.0 - 47.6
18/04:00am 16.0 11.9 15.0 94 0.6 NNE 30 33 16 18 1018.9 - 47.6
18/03:30am 16.0 11.0 15.0 94 0.6 NE 35 39 19 21 1018.7 - 47.2
18/03:00am 15.9 10.8 14.9 94 0.6 NE 35 39 19 21 1018.6 1018.6 47.2
18/02:30am 16.1 11.4 14.9 93 0.7 NE 33 39 18 21 1018.9 - 47.2
18/02:00am 16.3 10.9 15.1 93 0.7 NE 37 43 20 23 1018.7 - 47.2
18/01:30am 16.3 10.6 15.1 93 0.7 NE 39 44 21 24 1018.9 - 47.2
18/01:00am 16.1 10.7 15.1 94 0.6 NE 37 43 20 23 1018.9 - 47.2
18/12:30am 15.9 11.2 14.9 94 0.6 NE 33 37 18 20 1019.2 - 47.2
18/12:00am 15.9 11.4 14.9 94 0.6 NE 32 39 17 21 1019.0 1019.1 47.2
 
Date/Time
EDT
Temp
°C
App
Temp
°C
Dew
Point
°C
Rel
Hum
%
Delta-T
°C
Wind Press
QNH
hPa
Press
MSL
hPa
Rain since
9am
mm
Dir  Spd
km/h
Gust
km/h
Spd
kts
Gust
kts
17/11:30pm 16.4 11.4 15.0 91 0.8 NNE 35 41 19 22 1019.2 - 47.2
17/11:00pm 16.5 12.1 15.1 91 0.8 NNE 32 41 17 22 1019.4 - 47.2
17/10:30pm 16.2 12.4 14.6 90 0.9 NNE 28 32 15 17 1019.2 - 47.2
17/10:00pm 17.1 13.2 15.4 90 1.0 NNE 30 41 16 22 1019.5 - 47.2
17/09:30pm 16.5 13.3 15.3 93 0.7 NNE 26 32 14 17 1019.4 - 47.2
17/09:00pm 16.0 12.3 15.0 94 0.6 NE 28 32 15 17 1019.0 1019.0 47.2
17/08:30pm 16.0 13.1 15.0 94 0.6 NNE 24 28 13 15 1019.1 - 47.2
17/08:00pm 16.5 11.8 14.9 90 0.9 NNE 33 46 18 25 1018.8 - 47.2
17/07:30pm 16.7 12.1 15.1 90 0.9 NE 33 39 18 21 1018.5 - 47.2
17/07:00pm 16.8 11.7 15.8 94 0.6 NNE 37 44 20 24 1018.2 - 47.2
17/06:30pm 16.8 11.4 16.1 96 0.4 NE 39 46 21 25 1017.5 - 47.2
17/06:00pm 16.6 9.3 15.4 93 0.7 NE 48 56 26 30 1016.8 1016.7 47.2
17/05:30pm 16.6 6.9 15.6 94 0.6 NE 61 69 33 37 1015.6 - 47.0
17/05:00pm 16.9 4.8 15.9 94 0.6 NE 74 83 40 45 1014.9 - 46.2
17/04:57pm 16.9 5.1 15.7 93 0.7 NE 72 80 39 43 1015.1 - 45.8
17/04:31pm 16.8 10.4 15.8 94 0.6 NNE 44 65 24 35 1016.3 - 45.0
17/04:30pm 16.6 10.1 15.7 94 0.5 NNE 44 59 24 32 1016.5 - 45.0
17/04:00pm 15.9 10.5 14.9 94 0.6 NNE 37 43 20 23 1017.7 - 44.6
17/03:30pm 15.7 11.8 14.3 91 0.8 NNE 28 35 15 19 1018.3 - 44.2
17/03:00pm 16.2 10.7 14.8 91 0.8 NNE 37 46 20 25 1018.6 1018.6 43.4
17/02:53pm 16.5 11.3 15.5 94 0.6 NNE 37 48 20 26 1018.6 - 43.4
17/02:30pm 16.8 10.0 15.9 94 0.5 ENE 46 52 25 28 1018.0 - 43.2
17/02:25pm 16.8 10.0 15.9 94 0.5 ENE 46 52 25 28 1018.1 - 43.2
17/02:21pm 16.5 11.4 15.8 96 0.4 NNE 37 52 20 28 1018.2 - 43.2
17/02:09pm 16.9 12.0 16.4 97 0.3 E 37 46 20 25 1018.0 - 42.4
17/02:00pm 16.8 11.6 16.5 98 0.2 ENE 39 44 21 24 1018.6 - 40.8
17/01:30pm 16.7 9.7 16.2 97 0.3 ENE 48 61 26 33 1018.1 - 34.4
17/01:26pm 16.7 11.0 16.2 97 0.3 ENE 41 59 22 32 1018.3 - 34.0
17/01:00pm 16.7 12.4 16.0 96 0.4 ENE 33 50 18 27 1019.2 - 32.8
17/12:30pm 15.7 10.4 15.2 97 0.3 NE 37 46 20 25 1019.3 - 24.0
17/12:00pm 16.3 9.4 15.6 96 0.4 NE 46 56 25 30 1019.2 1019.2 22.6
17/11:30am 16.5 13.2 16.0 97 0.3 NNE 28 41 15 22 1019.4 - 21.8
17/11:00am 16.0 12.7 15.1 94 0.5 ENE 26 30 14 16 1019.5 - 16.8
17/10:30am 15.7 10.0 15.2 97 0.3 ENE 39 44 21 24 1019.0 - 15.4
17/10:00am 15.7 12.0 15.0 96 0.4 ENE 28 32 15 17 1019.6 - 8.6
17/09:30am 16.3 15.0 15.8 97 0.3 N 17 22 9 12 1019.4 - 4.0
17/09:21am 16.1 14.3 15.6 97 0.3 N 19 35 10 19 1019.3 - 3.4
17/09:00am 15.6 10.2 14.9 96 0.4 NNE 37 46 20 25 1019.0 1018.9 13.4
17/08:31am 16.2 11.1 15.9 98 0.2 NNE 37 57 20 31 1017.9 - 10.8
17/08:30am 16.1 11.4 15.8 98 0.2 NNE 35 52 19 28 1017.9 - 10.8
17/08:26am 16.2 12.7 15.5 96 0.4 NNE 28 46 15 25 1018.1 - 8.6
17/08:00am 16.5 14.8 15.8 96 0.4 NNE 19 26 10 14 1017.7 - 4.6
17/07:30am 16.1 14.0 15.2 94 0.5 NNE 20 24 11 13 1017.5 - 1.2
17/07:00am 16.5 14.4 15.3 93 0.7 NNE 20 26 11 14 1017.4 - 0.2
17/06:30am 17.4 14.8 15.0 86 1.4 N 22 26 12 14 1017.3 - 0.0
17/06:00am 16.7 12.3 15.1 90 0.9 NE 32 35 17 19 1017.0 1016.8 0.0
17/05:30am 16.8 11.8 15.1 90 1.0 NE 35 39 19 21 1016.3 - 0.0
17/05:00am 16.7 11.3 15.0 90 1.0 NE 37 41 20 22 1015.9 - 0.0
17/04:30am 16.8 12.9 15.4 91 0.8 NE 30 35 16 19 1015.8 - 0.0
17/04:00am 17.5 12.9 15.1 86 1.4 NNE 33 43 18 23 1016.0 - 0.0
17/03:30am 17.3 13.6 15.9 91 0.8 NNE 30 43 16 23 1016.1 - 0.0
17/03:00am 17.3 12.6 14.9 86 1.4 NE 33 41 18 22 1016.1 1016.1 0.0
17/02:30am 16.6 12.0 15.0 90 0.9 NE 33 39 18 21 1016.1 - 0.0
17/02:00am 16.4 11.9 15.5 94 0.5 NE 33 37 18 20 1015.8 - 0.0
17/01:30am 16.6 12.0 15.0 90 0.9 NE 33 37 18 20 1016.0 - 0.0
17/01:00am 16.7 13.0 15.0 90 1.0 NE 28 33 15 18 1016.3 - 0.0
17/12:30am 16.7 12.3 15.1 90 0.9 NE 32 37 17 20 1016.3 - 0.0
17/12:00am 16.7 11.0 15.1 90 0.9 NE 39 44 21 24 1016.2 1016.2 0.0
 
Date/Time
EDT
Temp
°C
App
Temp
°C
Dew
Point
°C
Rel
Hum
%
Delta-T
°C
Wind Press
QNH
hPa
Press
MSL
hPa
Rain since
9am
mm
Dir  Spd
km/h
Gust
km/h
Spd
kts
Gust
kts
16/11:30pm 16.7 10.3 15.3 91 0.8 NE 43 46 23 25 1015.9 - 0.0
16/11:00pm 16.7 9.2 15.1 90 0.9 NE 48 56 26 30 1015.4 - 0.0
16/10:30pm 16.9 9.9 15.2 90 1.0 NE 46 54 25 29 1015.4 - 0.0
16/10:00pm 16.8 10.2 15.3 91 0.9 NE 44 50 24 27 1015.3 - 0.0
16/09:30pm 16.7 10.3 15.3 91 0.8 NE 43 48 23 26 1015.1 - 0.0
16/09:00pm 16.7 10.3 15.5 93 0.7 NE 43 46 23 25 1014.6 1014.7 0.0
16/08:30pm 16.9 10.0 15.5 91 0.8 NE 46 52 25 28 1014.3 - 0.0
16/08:00pm 17.1 10.8 15.6 91 0.9 NE 43 48 23 26 1014.1 - 0.0
16/07:30pm 17.2 10.9 15.7 91 0.9 NE 43 48 23 26 1013.9 - 0.0
16/07:00pm 17.4 10.9 15.5 89 1.1 NE 44 50 24 27 1013.6 - 0.0
16/06:30pm 17.4 10.8 15.3 87 1.2 NE 44 48 24 26 1013.3 - 0.0
16/06:00pm 18.2 11.3 15.5 84 1.6 NE 46 54 25 29 1013.1 1013.1 0.0
16/05:30pm 18.8 11.8 15.4 80 2.0 NE 46 56 25 30 1013.1 - 0.0
16/05:00pm 19.1 12.1 15.4 79 2.2 NE 46 57 25 31 1013.1 - 0.0
16/04:30pm 19.2 12.9 15.7 80 2.1 NE 43 54 23 29 1013.0 - 0.0
16/04:00pm 19.8 13.0 15.8 78 2.4 NE 46 56 25 30 1012.7 - 0.0
16/03:30pm 19.9 12.6 15.5 76 2.6 NE 48 57 26 31 1012.6 - 0.0
16/03:00pm 19.8 12.6 15.8 78 2.4 NE 48 61 26 33 1012.7 1012.7 0.0
16/02:30pm 20.1 12.9 15.9 77 2.5 NE 48 59 26 32 1012.8 - 0.0
16/02:00pm 20.7 12.7 15.8 73 2.9 NNE 52 63 28 34 1012.7 - 0.0
16/01:30pm 20.8 12.0 15.6 72 3.1 NNE 56 74 30 40 1012.6 - 0.0
16/01:23pm 21.1 12.3 15.7 71 3.2 NE 56 74 30 40 1012.5 - 0.0
16/01:00pm 20.5 12.3 15.1 71 3.2 NE 52 65 28 35 1012.7 - 0.0
16/12:30pm 20.8 12.4 14.5 67 3.7 NNE 52 65 28 35 1012.9 - 0.0
16/12:00pm 20.8 10.5 14.1 65 3.9 NNE 61 78 33 42 1013.0 1013.0 0.0
16/11:30am 20.8 13.3 13.9 64 4.0 NNE 46 69 25 37 1013.1 - 0.0
16/11:25am 20.4 12.6 14.2 67 3.6 NNE 48 67 26 36 1013.3 - 0.0
16/11:00am 20.7 12.0 13.8 64 4.0 NNE 52 65 28 35 1013.3 - 0.0
16/10:30am 20.9 10.8 13.4 62 4.3 NNE 59 74 32 40 1013.0 - 0.0
16/10:00am 20.3 11.5 13.5 65 3.9 NNE 52 65 28 35 1013.0 - 0.0

Other Formats:

Comma delimited format used in spreadsheet applications
http://www.bom.gov.au/fwo/IDV60801/IDV60801.94933.axf

JavaScript Object Notation format (JSON) in row-major order
http://www.bom.gov.au/fwo/IDV60801/IDV60801.94933.json